createdAt,value
2017-12-24T00:01:45.283Z,81.64
2017-12-24T00:04:12.750Z,81.19
2017-12-24T00:06:40.222Z,81.62
2017-12-24T00:09:07.759Z,81.23
2017-12-24T00:11:35.202Z,81.22
2017-12-24T00:14:02.653Z,80.67
2017-12-24T00:16:30.127Z,80.72
2017-12-24T00:18:57.594Z,80.23
2017-12-24T00:21:25.044Z,80.61
2017-12-24T00:23:52.498Z,81.31
2017-12-24T00:26:19.979Z,81.07
2017-12-24T00:28:47.450Z,81.26
2017-12-24T00:31:14.910Z,81.69
2017-12-24T00:33:42.410Z,80.84
2017-12-24T00:36:09.852Z,81.42
2017-12-24T00:38:37.313Z,81.61
2017-12-24T00:41:04.744Z,81.22
2017-12-24T00:43:32.214Z,80.76
2017-12-24T00:45:59.660Z,81.35
2017-12-24T00:48:27.113Z,80.97
2017-12-24T00:50:54.574Z,81.16
2017-12-24T00:53:22.026Z,81.73
2017-12-24T00:55:49.527Z,81.99
2017-12-24T00:58:16.996Z,80.79
2017-12-24T01:00:44.446Z,81.73
2017-12-24T01:03:11.885Z,81.65
2017-12-24T01:05:39.336Z,81.00
2017-12-24T01:08:06.764Z,81.31
2017-12-24T01:10:34.218Z,81.05
2017-12-24T01:13:01.648Z,81.45
2017-12-24T01:15:29.237Z,81.35
2017-12-24T01:17:56.678Z,81.67
2017-12-24T01:20:24.156Z,80.93
2017-12-24T01:22:51.603Z,81.08
2017-12-24T01:25:19.091Z,80.57
2017-12-24T01:27:46.544Z,80.94
2017-12-24T01:30:13.991Z,81.47
2017-12-24T01:32:41.469Z,81.51
2017-12-24T01:35:08.923Z,81.22
2017-12-24T01:37:36.515Z,80.49
2017-12-24T01:40:04.069Z,81.50
2017-12-24T01:42:31.549Z,81.93
2017-12-24T01:44:58.998Z,81.36
2017-12-24T01:50:21.323Z,81.60
2017-12-24T01:52:48.796Z,81.39
2017-12-24T01:55:16.238Z,81.52
2017-12-24T01:57:43.711Z,81.19
2017-12-24T02:00:11.169Z,81.77
2017-12-24T02:02:38.649Z,80.75
2017-12-24T02:05:06.137Z,81.45
2017-12-24T02:07:33.614Z,80.61
2017-12-24T02:10:01.090Z,81.09
2017-12-24T02:12:28.600Z,81.10
2017-12-24T02:14:56.060Z,81.16
2017-12-24T02:17:23.507Z,81.05
2017-12-24T02:19:50.971Z,80.83
2017-12-24T02:22:18.435Z,81.01
2017-12-24T02:24:45.932Z,82.08
2017-12-24T02:27:13.395Z,81.76
2017-12-24T02:29:40.868Z,81.11
2017-12-24T02:32:08.307Z,81.42
2017-12-24T02:34:35.800Z,81.73
2017-12-24T02:37:03.264Z,81.51
2017-12-24T02:39:30.777Z,81.24
2017-12-24T02:41:58.240Z,81.63
2017-12-24T02:44:25.702Z,81.38
2017-12-24T02:46:53.171Z,80.50
2017-12-24T02:49:20.620Z,81.44
2017-12-24T02:51:48.093Z,81.74
2017-12-24T02:54:15.549Z,81.68
2017-12-24T02:56:43.029Z,81.96
2017-12-24T02:59:10.483Z,81.30
2017-12-24T03:01:37.951Z,82.33
2017-12-24T03:04:05.443Z,81.29
2017-12-24T03:06:32.915Z,81.29
2017-12-24T03:09:00.360Z,81.20
2017-12-24T03:11:27.869Z,80.64
2017-12-24T03:13:55.319Z,81.15
2017-12-24T03:16:22.771Z,81.06
2017-12-24T03:18:50.255Z,80.63
2017-12-24T03:21:17.716Z,81.11
2017-12-24T03:23:45.205Z,81.37
2017-12-24T03:26:12.647Z,81.16
2017-12-24T03:28:40.107Z,81.19
2017-12-24T03:31:07.572Z,80.43
2017-12-24T03:33:35.041Z,80.02
2017-12-24T03:36:02.487Z,80.73
2017-12-24T03:38:29.951Z,81.59
2017-12-24T03:40:57.479Z,81.01
2017-12-24T03:43:24.953Z,80.92
2017-12-24T03:45:52.399Z,81.51
2017-12-24T03:48:19.873Z,81.64
2017-12-24T03:50:47.412Z,82.21
2017-12-24T03:53:14.898Z,81.67
2017-12-24T03:55:42.356Z,81.70
2017-12-24T03:58:09.859Z,81.25
2017-12-24T04:00:37.312Z,82.03
2017-12-24T04:03:04.759Z,82.06
2017-12-24T04:05:32.231Z,81.84
2017-12-24T04:07:59.707Z,81.24
2017-12-24T04:10:27.189Z,81.31
2017-12-24T04:12:54.648Z,81.46
2017-12-24T04:15:22.128Z,82.06
2017-12-24T04:17:49.584Z,82.18
2017-12-24T04:20:17.068Z,81.89
2017-12-24T04:22:44.531Z,82.24
2017-12-24T04:25:11.999Z,81.53
2017-12-24T04:27:39.443Z,82.74
2017-12-24T04:30:06.915Z,82.63
2017-12-24T04:32:34.408Z,81.31
2017-12-24T04:35:01.912Z,81.26
2017-12-24T04:37:29.363Z,81.76
2017-12-24T04:39:56.816Z,82.15
2017-12-24T04:42:24.295Z,82.27
2017-12-24T04:44:51.752Z,81.65
2017-12-24T04:47:19.233Z,81.30
2017-12-24T04:49:46.679Z,81.33
2017-12-24T04:52:14.143Z,81.63
2017-12-24T04:54:41.597Z,82.30
2017-12-24T04:57:09.076Z,81.75
2017-12-24T04:59:36.520Z,81.71
2017-12-24T05:02:04.002Z,82.29
2017-12-24T05:04:31.473Z,82.21
2017-12-24T05:06:58.952Z,81.57
2017-12-24T05:09:26.403Z,81.53
2017-12-24T05:11:53.935Z,81.76
2017-12-24T05:14:21.390Z,81.75
2017-12-24T05:16:48.908Z,82.27
2017-12-24T05:19:16.389Z,80.96
2017-12-24T05:21:43.892Z,81.70
2017-12-24T05:24:11.361Z,82.32
2017-12-24T05:26:38.841Z,82.21
2017-12-24T05:29:06.284Z,81.52
2017-12-24T05:31:33.727Z,81.49
2017-12-24T05:34:01.192Z,82.18
2017-12-24T05:36:28.644Z,81.63
2017-12-24T05:38:56.668Z,81.50
2017-12-24T05:41:24.176Z,81.69
2017-12-24T05:43:51.644Z,80.91
2017-12-24T05:46:19.101Z,81.19
2017-12-24T05:48:46.566Z,81.67
2017-12-24T05:51:14.012Z,81.71
2017-12-24T05:53:41.479Z,81.67
2017-12-24T05:56:08.928Z,82.41
2017-12-24T05:58:36.391Z,82.03
2017-12-24T06:01:03.839Z,82.41
2017-12-24T06:03:31.356Z,81.89
2017-12-24T06:05:58.824Z,81.46
2017-12-24T06:08:26.457Z,81.57
2017-12-24T06:10:54.148Z,81.97
2017-12-24T06:13:21.619Z,82.06
2017-12-24T06:15:49.083Z,82.20
2017-12-24T06:18:16.537Z,81.42
2017-12-24T06:20:44.032Z,81.96
2017-12-24T06:23:11.483Z,81.43
2017-12-24T06:25:38.960Z,81.85
2017-12-24T06:28:06.417Z,81.65
2017-12-24T06:30:33.893Z,82.32
2017-12-24T06:33:01.349Z,81.86
2017-12-24T06:35:29.085Z,81.22
2017-12-24T06:37:56.531Z,81.03
2017-12-24T06:40:24.028Z,80.65
2017-12-24T06:42:51.471Z,81.24
2017-12-24T06:45:18.939Z,80.59
2017-12-24T06:47:46.383Z,80.43
2017-12-24T06:50:13.851Z,80.87
2017-12-24T06:52:41.305Z,80.93
2017-12-24T06:55:08.830Z,81.19
2017-12-24T06:57:36.305Z,81.22
2017-12-24T07:00:03.771Z,80.81
2017-12-24T07:02:31.263Z,81.47
2017-12-24T07:04:58.719Z,80.99
2017-12-24T07:07:26.299Z,80.24
2017-12-24T07:09:53.751Z,80.34
2017-12-24T07:12:21.244Z,80.53
2017-12-24T07:14:48.691Z,81.60
2017-12-24T07:17:16.159Z,81.17
2017-12-24T07:19:43.623Z,80.90
2017-12-24T07:22:11.103Z,80.41
2017-12-24T07:24:38.565Z,81.50
2017-12-24T07:27:06.035Z,80.65
2017-12-24T07:29:33.479Z,80.96
2017-12-24T07:32:01.060Z,80.79
2017-12-24T07:34:28.607Z,81.58
2017-12-24T07:36:56.074Z,81.88
2017-12-24T07:39:23.523Z,81.46
2017-12-24T07:41:51.032Z,81.61
2017-12-24T07:44:18.496Z,81.03
2017-12-24T07:46:45.956Z,81.16
2017-12-24T07:49:13.427Z,81.33
2017-12-24T07:51:41.175Z,80.08
2017-12-24T07:54:08.659Z,81.43
2017-12-24T07:56:36.114Z,81.52
2017-12-24T07:59:03.589Z,80.73
2017-12-24T08:01:31.049Z,80.61
2017-12-24T08:03:58.524Z,81.20
2017-12-24T08:06:25.975Z,81.17
2017-12-24T08:08:53.439Z,81.01
2017-12-24T08:11:21.649Z,80.78
2017-12-24T08:13:49.190Z,81.13
2017-12-24T08:16:16.627Z,81.34
2017-12-24T08:18:44.095Z,80.08
2017-12-24T08:21:11.549Z,81.04
2017-12-24T08:23:39.016Z,80.48
2017-12-24T08:26:06.513Z,80.16
2017-12-24T08:28:34.016Z,80.13
2017-12-24T08:31:01.461Z,80.82
2017-12-24T08:33:28.910Z,80.20
2017-12-24T08:35:56.379Z,80.47
2017-12-24T08:38:23.838Z,80.76
2017-12-24T08:40:51.320Z,79.61
2017-12-24T08:43:18.772Z,79.89
2017-12-24T08:45:46.523Z,80.21
2017-12-24T08:48:14.001Z,79.65
2017-12-24T08:50:41.471Z,80.44
2017-12-24T08:53:08.931Z,80.71
2017-12-24T08:55:36.441Z,80.09
2017-12-24T08:58:03.914Z,80.01
2017-12-24T09:00:31.356Z,80.02
2017-12-24T09:02:58.833Z,79.62
2017-12-24T09:05:26.338Z,79.49
2017-12-24T09:07:53.894Z,79.79
2017-12-24T09:10:21.885Z,79.79
2017-12-24T09:12:49.360Z,79.99
2017-12-24T09:15:16.808Z,79.92
2017-12-24T09:17:44.271Z,80.24
2017-12-24T09:20:11.719Z,79.49
2017-12-24T09:22:39.179Z,80.04
2017-12-24T09:25:06.625Z,79.67
2017-12-24T09:27:34.114Z,79.79
2017-12-24T09:30:01.560Z,78.92
2017-12-24T09:32:29.122Z,79.08
2017-12-24T09:34:56.575Z,78.10
2017-12-24T09:37:24.125Z,79.61
2017-12-24T09:39:51.610Z,79.33
2017-12-24T09:42:19.112Z,78.87
2017-12-24T09:44:46.632Z,78.90
2017-12-24T09:47:14.101Z,78.68
2017-12-24T09:49:41.571Z,79.15
2017-12-24T09:52:09.031Z,79.50
2017-12-24T09:54:36.508Z,79.70
2017-12-24T09:57:03.960Z,79.07
2017-12-24T09:59:31.503Z,79.48
2017-12-24T10:01:58.991Z,78.88
2017-12-24T10:04:26.459Z,78.42
2017-12-24T10:06:53.928Z,78.67
2017-12-24T10:09:21.534Z,79.40
2017-12-24T10:20:30.572Z,77.76
2017-12-24T10:22:58.130Z,78.37
2017-12-24T10:25:25.627Z,78.67
2017-12-24T10:27:53.067Z,78.20
2017-12-24T10:30:20.576Z,78.55
2017-12-24T10:32:48.120Z,79.30
2017-12-24T10:35:15.577Z,79.21
2017-12-24T10:37:43.073Z,79.23
2017-12-24T10:40:10.592Z,78.51
2017-12-24T10:42:38.070Z,79.40
2017-12-24T10:45:05.535Z,79.19
2017-12-24T10:47:33.011Z,79.83
2017-12-24T10:50:00.461Z,79.00
2017-12-24T10:52:27.944Z,79.20
2017-12-24T10:54:55.382Z,78.91
2017-12-24T10:57:22.886Z,78.76
2017-12-24T10:59:50.435Z,79.11
2017-12-24T11:02:17.919Z,79.58
2017-12-24T11:04:45.381Z,78.64
2017-12-24T11:07:12.885Z,78.83
2017-12-24T11:09:40.349Z,78.61
2017-12-24T11:12:07.825Z,78.11
2017-12-24T11:14:35.379Z,77.43
2017-12-24T11:17:02.848Z,78.39
2017-12-24T11:19:30.320Z,77.97
2017-12-24T11:21:57.808Z,78.83
2017-12-24T11:24:25.293Z,78.73
2017-12-24T11:26:52.749Z,78.35
2017-12-24T11:29:20.225Z,78.45
2017-12-24T11:31:47.689Z,78.12
2017-12-24T11:34:15.164Z,78.00
2017-12-24T11:36:42.641Z,78.07
2017-12-24T11:39:10.160Z,78.28
2017-12-24T11:41:37.621Z,78.55
2017-12-24T11:44:05.125Z,78.51
2017-12-24T11:46:32.574Z,78.57
2017-12-24T11:49:00.051Z,79.20
2017-12-24T11:51:27.555Z,78.55
2017-12-24T11:53:55.060Z,78.47
2017-12-24T11:58:56.366Z,78.24
2017-12-24T12:01:23.819Z,78.30
2017-12-24T12:03:51.353Z,77.89
2017-12-24T12:06:18.836Z,78.56
2017-12-24T12:08:46.287Z,77.19
2017-12-24T12:11:13.751Z,77.54
2017-12-24T12:13:41.203Z,77.55
2017-12-24T12:16:08.667Z,78.66
2017-12-24T12:18:36.129Z,77.52
2017-12-24T12:21:03.714Z,77.83
2017-12-24T12:23:31.237Z,77.82
2017-12-24T12:25:58.784Z,78.19
2017-12-24T12:28:26.349Z,78.51
2017-12-24T12:30:53.852Z,77.79
2017-12-24T12:33:21.316Z,77.90
2017-12-24T12:35:48.778Z,78.21
2017-12-24T12:38:16.285Z,78.31
2017-12-24T12:40:43.768Z,77.67
2017-12-24T12:43:11.236Z,78.35
2017-12-24T12:45:38.687Z,77.43
2017-12-24T12:48:06.181Z,78.10
2017-12-24T12:50:33.655Z,78.56
2017-12-24T12:53:01.111Z,78.50
2017-12-24T12:55:28.555Z,78.03
2017-12-24T13:00:29.739Z,78.52
2017-12-24T13:02:57.312Z,78.37
2017-12-24T13:05:24.862Z,78.69
2017-12-24T13:07:52.335Z,78.00
2017-12-24T13:10:19.786Z,77.57
2017-12-24T13:12:47.296Z,77.85
2017-12-24T13:15:14.773Z,78.25
2017-12-24T13:17:42.225Z,77.40
2017-12-24T13:20:09.744Z,77.75
2017-12-24T13:22:37.274Z,77.73
2017-12-24T13:25:05.077Z,77.99
2017-12-24T13:27:32.609Z,78.39
2017-12-24T13:30:00.133Z,77.95
2017-12-24T13:32:27.584Z,77.82
2017-12-24T13:34:55.128Z,78.15
2017-12-24T13:37:22.628Z,78.54
2017-12-24T13:39:50.184Z,78.44
2017-12-24T13:42:17.632Z,78.33
2017-12-24T13:44:45.127Z,79.21
2017-12-24T13:47:12.599Z,78.60
2017-12-24T13:49:40.109Z,78.50
2017-12-24T13:52:07.604Z,78.42
2017-12-24T13:54:35.121Z,78.20
2017-12-24T13:57:02.592Z,78.76
2017-12-24T13:59:30.063Z,78.24
2017-12-24T14:01:57.578Z,77.62
2017-12-24T14:04:25.068Z,78.63
2017-12-24T14:06:52.520Z,79.04
2017-12-24T14:09:19.966Z,79.33
2017-12-24T14:11:47.517Z,78.43
2017-12-24T14:14:14.998Z,78.90
2017-12-24T14:16:42.468Z,79.12
2017-12-24T14:19:09.962Z,79.26
2017-12-24T14:21:37.436Z,78.72
2017-12-24T14:24:04.961Z,79.40
2017-12-24T14:26:32.437Z,78.85
2017-12-24T14:28:59.905Z,78.82
2017-12-24T14:31:27.384Z,78.64
2017-12-24T14:33:54.867Z,79.56
2017-12-24T14:36:22.386Z,79.94
2017-12-24T14:38:49.839Z,80.20
2017-12-24T14:41:17.410Z,80.60
2017-12-24T14:43:44.897Z,80.20
2017-12-24T14:46:12.344Z,80.52
2017-12-24T14:48:39.817Z,80.34
2017-12-24T14:51:07.270Z,80.28
2017-12-24T14:53:34.758Z,80.66
2017-12-24T14:56:02.208Z,80.50
2017-12-24T14:58:29.735Z,80.68
2017-12-24T15:00:57.184Z,80.21
2017-12-24T15:03:24.655Z,79.72
2017-12-24T15:05:52.116Z,80.51
2017-12-24T15:08:19.609Z,80.26
2017-12-24T15:10:47.086Z,80.02
2017-12-24T15:13:14.554Z,80.79
2017-12-24T15:15:42.005Z,80.71
2017-12-24T15:18:09.511Z,80.86
2017-12-24T15:20:36.961Z,81.70
2017-12-24T15:23:04.457Z,80.84
2017-12-24T15:25:31.915Z,80.63
2017-12-24T15:27:59.376Z,79.76
2017-12-24T15:30:26.848Z,80.46
2017-12-24T15:32:54.305Z,80.72
2017-12-24T15:35:21.780Z,81.12
2017-12-24T15:37:49.236Z,80.64
2017-12-24T15:40:16.748Z,81.20
2017-12-24T15:42:44.205Z,80.39
2017-12-24T15:45:11.663Z,81.16
2017-12-24T15:47:39.150Z,81.46
2017-12-24T15:50:06.680Z,81.40
2017-12-24T15:52:34.141Z,81.09
2017-12-24T15:55:01.649Z,81.62
2017-12-24T15:57:29.129Z,81.38
2017-12-24T15:59:56.608Z,81.35
2017-12-24T16:02:24.179Z,80.61
2017-12-24T16:04:51.637Z,81.24
2017-12-24T16:07:19.209Z,80.81
2017-12-24T16:09:46.745Z,81.15
2017-12-24T16:12:14.231Z,80.30
2017-12-24T16:17:34.230Z,80.15
2017-12-24T16:20:01.684Z,80.07
2017-12-24T16:22:29.194Z,80.49
2017-12-24T16:24:56.663Z,80.16
2017-12-24T16:27:24.137Z,79.37
2017-12-24T16:29:51.584Z,80.36
2017-12-24T16:32:19.051Z,79.92
2017-12-24T16:34:46.493Z,79.85
2017-12-24T16:37:13.958Z,79.78
2017-12-24T16:39:41.503Z,79.95
2017-12-24T16:42:09.002Z,79.31
2017-12-24T16:44:36.446Z,80.64
2017-12-24T16:47:03.910Z,79.46
2017-12-24T16:49:31.414Z,79.94
2017-12-24T16:51:58.881Z,80.51
2017-12-24T16:54:26.349Z,80.51
2017-12-24T16:56:53.875Z,80.77
2017-12-24T16:59:21.323Z,79.56
2017-12-24T17:01:48.820Z,80.65
2017-12-24T17:04:16.300Z,80.51
2017-12-24T17:06:43.752Z,80.24
2017-12-24T17:09:11.216Z,80.83
2017-12-24T17:11:38.715Z,80.47
2017-12-24T17:14:06.180Z,80.99
2017-12-24T17:16:33.640Z,80.44
2017-12-24T17:19:01.118Z,80.88
2017-12-24T17:21:28.596Z,80.92
2017-12-24T17:23:56.076Z,80.74
2017-12-24T17:26:23.527Z,80.06
2017-12-24T17:28:51.047Z,81.04
2017-12-24T17:31:18.498Z,80.64
2017-12-24T17:33:45.986Z,80.88
2017-12-24T17:36:13.435Z,81.22
2017-12-24T17:38:40.879Z,80.38
2017-12-24T17:41:08.365Z,80.78
2017-12-24T17:43:35.815Z,80.75
2017-12-24T17:46:03.279Z,80.71
2017-12-24T17:48:30.730Z,80.40
2017-12-24T17:50:58.343Z,80.86
2017-12-24T17:53:25.789Z,79.73
2017-12-24T17:55:53.255Z,79.75
2017-12-24T17:58:20.709Z,80.56
2017-12-24T18:00:48.175Z,80.63
2017-12-24T18:03:15.624Z,80.97
2017-12-24T18:05:43.099Z,80.72
2017-12-24T18:08:10.550Z,81.20
2017-12-24T18:10:38.006Z,81.75
2017-12-24T18:13:05.457Z,82.14
2017-12-24T18:15:33.032Z,82.51
2017-12-24T18:18:00.479Z,82.21
2017-12-24T18:20:27.947Z,82.36
2017-12-24T18:22:55.391Z,81.80
2017-12-24T18:25:22.838Z,80.89
2017-12-24T18:27:50.311Z,81.26
2017-12-24T18:30:17.780Z,81.88
2017-12-24T18:32:45.259Z,80.55
2017-12-24T18:35:12.710Z,81.82
2017-12-24T18:37:40.237Z,81.57
2017-12-24T18:40:07.693Z,81.59
2017-12-24T18:42:35.159Z,81.24
2017-12-24T18:45:02.660Z,80.83
2017-12-24T18:47:30.136Z,81.39
2017-12-24T18:49:57.588Z,81.28
2017-12-24T18:52:25.079Z,81.85
2017-12-24T18:54:52.659Z,81.89
2017-12-24T18:57:20.201Z,81.27
2017-12-24T18:59:47.638Z,82.41
2017-12-24T19:02:15.092Z,81.65
2017-12-24T19:04:42.550Z,81.70
2017-12-24T19:07:10.029Z,82.25
2017-12-24T19:09:37.581Z,82.16
2017-12-24T19:12:05.029Z,82.47
2017-12-24T19:14:32.504Z,82.19
2017-12-24T19:16:59.951Z,82.35
2017-12-24T19:19:27.412Z,82.84
2017-12-24T19:21:54.916Z,82.05
2017-12-24T19:24:22.380Z,82.36
2017-12-24T19:26:49.832Z,82.58
2017-12-24T19:29:17.315Z,82.15
2017-12-24T19:31:44.772Z,82.51
2017-12-24T19:34:12.355Z,82.29
2017-12-24T19:36:39.819Z,82.34
2017-12-24T19:39:07.270Z,82.87
2017-12-24T19:41:34.831Z,81.91
2017-12-24T19:44:02.279Z,83.16
2017-12-24T19:46:29.762Z,82.40
2017-12-24T19:48:57.227Z,82.06
2017-12-24T19:51:24.698Z,81.76
2017-12-24T19:53:52.143Z,82.57
2017-12-24T19:56:19.616Z,81.52
2017-12-24T19:58:47.079Z,81.82
2017-12-24T20:01:14.546Z,82.17
2017-12-24T20:03:42.048Z,82.71
2017-12-24T20:06:09.519Z,81.37
2017-12-24T20:08:36.959Z,81.29
2017-12-24T20:11:04.412Z,82.21
2017-12-24T20:13:31.883Z,82.99
2017-12-24T20:15:59.332Z,81.97
2017-12-24T20:18:26.798Z,81.27
2017-12-24T20:20:54.329Z,81.69
2017-12-24T20:23:21.798Z,81.66
2017-12-24T20:25:49.247Z,81.47
2017-12-24T20:28:16.740Z,81.93
2017-12-24T20:30:44.260Z,82.20
2017-12-24T20:33:11.728Z,81.64
2017-12-24T20:35:39.273Z,81.49
2017-12-24T20:38:06.739Z,81.17
2017-12-24T20:40:34.185Z,81.46
2017-12-24T20:43:01.646Z,80.97
2017-12-24T20:45:29.108Z,81.13
2017-12-24T20:47:56.585Z,80.98
2017-12-24T20:50:24.043Z,81.08
2017-12-24T20:52:51.507Z,80.73
2017-12-24T20:55:18.960Z,80.77
2017-12-24T20:57:46.448Z,80.95
2017-12-24T21:00:13.953Z,80.66
2017-12-24T21:02:41.408Z,80.73
2017-12-24T21:05:08.874Z,81.43
2017-12-24T21:07:36.325Z,80.99
2017-12-24T21:10:03.791Z,79.64
2017-12-24T21:12:31.236Z,79.42
2017-12-24T21:14:58.713Z,80.10
2017-12-24T21:17:26.165Z,79.73
2017-12-24T21:19:53.646Z,80.00
2017-12-24T21:22:21.117Z,79.41
2017-12-24T21:24:48.591Z,79.52
2017-12-24T21:29:43.515Z,80.26
2017-12-24T21:32:10.959Z,80.66
2017-12-24T21:34:38.427Z,79.82
2017-12-24T21:37:05.888Z,80.50
2017-12-24T21:39:33.354Z,79.68
2017-12-24T21:42:00.919Z,79.77
2017-12-24T21:44:28.464Z,79.94
2017-12-24T21:46:55.903Z,79.81
2017-12-24T21:49:23.397Z,79.84
2017-12-24T21:51:50.867Z,79.82
2017-12-24T21:54:18.414Z,79.81
2017-12-24T21:56:45.871Z,80.07
2017-12-24T21:59:13.408Z,79.60
2017-12-24T22:01:40.891Z,79.62
2017-12-24T22:04:08.335Z,79.72
2017-12-24T22:06:35.802Z,79.73
2017-12-24T22:09:03.264Z,80.49
2017-12-24T22:11:30.751Z,80.84
2017-12-24T22:13:58.207Z,80.55
2017-12-24T22:16:25.679Z,80.13
2017-12-24T22:18:53.143Z,80.10
2017-12-24T22:21:20.616Z,80.41
2017-12-24T22:23:48.129Z,80.26
2017-12-24T22:26:15.642Z,80.63
2017-12-24T22:28:43.113Z,80.87
2017-12-24T22:31:10.554Z,81.06
2017-12-24T22:33:38.019Z,79.89
2017-12-24T22:36:05.680Z,80.36
2017-12-24T22:38:33.154Z,80.15
2017-12-24T22:41:00.595Z,79.90
2017-12-24T22:43:28.071Z,80.37
2017-12-24T22:45:55.666Z,79.41
2017-12-24T22:48:23.135Z,80.31
2017-12-24T22:50:50.601Z,80.60
2017-12-24T22:53:18.168Z,80.37
2017-12-24T22:55:45.632Z,79.96
2017-12-24T22:58:13.186Z,80.18
2017-12-24T23:00:40.632Z,79.70
2017-12-24T23:03:08.080Z,80.25
2017-12-24T23:05:35.560Z,79.76
2017-12-24T23:08:03.029Z,80.02
2017-12-24T23:10:30.563Z,79.63
2017-12-24T23:12:58.048Z,80.49
2017-12-24T23:15:25.539Z,80.79
2017-12-24T23:17:52.987Z,80.28
2017-12-24T23:20:20.452Z,80.07
2017-12-24T23:22:47.911Z,79.75
2017-12-24T23:25:15.407Z,80.20
2017-12-24T23:27:42.852Z,80.72
2017-12-24T23:30:10.341Z,80.79
2017-12-24T23:32:37.880Z,80.64
2017-12-24T23:35:05.342Z,80.88
2017-12-24T23:37:32.779Z,80.90
2017-12-24T23:40:00.249Z,81.41
2017-12-24T23:42:27.698Z,81.86
2017-12-24T23:44:55.182Z,81.76
2017-12-24T23:47:22.636Z,81.29
2017-12-24T23:49:50.102Z,81.60
2017-12-24T23:52:17.546Z,81.46
2017-12-24T23:54:45.049Z,81.26
2017-12-24T23:57:12.495Z,81.85
2017-12-24T23:59:39.950Z,81.77
